Time,TemperatureF,DewpointF,PressureIn,WindDirection,WindDirectionDegrees,WindSpeedMPH,WindSpeedGustMPH,Humidity,HourlyPrecipIn,Conditions,Clouds,dailyrainin,SoftwareType,DateUTC
2013-02-20 00:13:00,32.0,31.8,29.45,SSW,202,1.1,-999.0,99,-99.99,,,0.00,Acu-Link.com,2013-02-20 05:13:00,
2013-02-20 00:28:00,32.0,31.8,29.45,SSW,202,0.0,-999.0,99,-99.99,,,0.00,Acu-Link.com,2013-02-20 05:28:00,
2013-02-20 01:02:00,32.0,31.8,29.45,SSW,202,0.0,-999.0,99,-99.99,,,0.00,Acu-Link.com,2013-02-20 06:02:00,
2013-02-20 01:28:00,32.0,31.8,29.45,SSW,202,2.7,-999.0,99,-99.99,,,0.00,Acu-Link.com,2013-02-20 06:28:00,
2013-02-20 02:17:00,30.9,30.7,29.45,SSW,202,1.7,-999.0,99,-99.99,,,0.00,Acu-Link.com,2013-02-20 07:17:00,
2013-02-20 02:32:00,30.4,30.2,29.46,SSW,202,0.0,-999.0,99,-99.99,,,0.00,Acu-Link.com,2013-02-20 07:32:00,
2013-02-20 02:47:00,29.8,28.5,29.46,SSW,202,1.7,-999.0,95,-99.99,,,0.00,Acu-Link.com,2013-02-20 07:47:00,
2013-02-20 03:17:00,29.1,27.1,29.46,SSW,202,0.0,-999.0,92,-99.99,,,0.00,Acu-Link.com,2013-02-20 08:17:00,
2013-02-20 03:32:00,28.6,27.1,29.46,East,90,2.7,-999.0,94,-99.99,,,0.00,Acu-Link.com,2013-02-20 08:32:00,
2013-02-20 03:47:00,28.2,25.9,29.47,SSW,202,2.7,-999.0,91,-99.99,,,0.00,Acu-Link.com,2013-02-20 08:47:00,
2013-02-20 04:17:00,27.9,25.1,29.47,SSW,202,2.2,-999.0,89,-99.99,,,0.00,Acu-Link.com,2013-02-20 09:17:00,
2013-02-20 04:33:00,27.0,25.5,29.48,NNW,337,0.0,-999.0,94,-99.99,,,0.00,Acu-Link.com,2013-02-20 09:33:00,
2013-02-20 04:48:00,26.6,24.6,29.48,SE,135,3.7,-999.0,92,-99.99,,,0.00,Acu-Link.com,2013-02-20 09:48:00,
2013-02-20 05:03:00,26.1,23.8,29.48,SE,135,2.2,-999.0,91,-99.99,,,0.00,Acu-Link.com,2013-02-20 10:03:00,
2013-02-20 05:18:00,25.7,23.4,29.48,ESE,112,1.7,-999.0,91,-99.99,,,0.00,Acu-Link.com,2013-02-20 10:18:00,
2013-02-20 05:33:00,25.3,22.8,29.49,SE,135,4.7,-999.0,90,-99.99,,,0.00,Acu-Link.com,2013-02-20 10:33:00,
2013-02-20 05:48:00,24.8,21.8,29.48,SE,135,2.2,-999.0,88,-99.99,,,0.00,Acu-Link.com,2013-02-20 10:48:00,
2013-02-20 06:03:00,24.3,22.6,29.49,SE,135,0.0,-999.0,93,-99.99,,,0.00,Acu-Link.com,2013-02-20 11:03:00,
2013-02-20 06:18:00,23.9,22.2,29.49,ESE,112,0.0,-999.0,93,-99.99,,,0.00,Acu-Link.com,2013-02-20 11:18:00,
2013-02-20 06:33:00,23.7,20.7,29.49,SW,225,3.2,-999.0,88,-99.99,,,0.00,Acu-Link.com,2013-02-20 11:33:00,
2013-02-20 06:48:00,23.7,20.9,29.49,SE,135,0.0,-999.0,89,-99.99,,,0.00,Acu-Link.com,2013-02-20 11:48:00,
2013-02-20 07:03:00,23.7,20.1,29.50,SE,135,0.0,-999.0,86,-99.99,,,0.00,Acu-Link.com,2013-02-20 12:03:00,
2013-02-20 07:19:00,24.4,21.1,29.50,SE,135,1.7,-999.0,87,-99.99,,,0.00,Acu-Link.com,2013-02-20 12:19:00,
2013-02-20 07:34:00,25.2,19.3,29.51,SE,135,1.7,-999.0,78,-99.99,,,0.00,Acu-Link.com,2013-02-20 12:34:00,
2013-02-20 07:49:00,26.4,19.6,29.51,SE,135,2.2,-999.0,75,-99.99,,,0.00,Acu-Link.com,2013-02-20 12:49:00,
2013-02-20 08:04:00,26.4,18.9,29.51,SE,135,2.2,-999.0,73,-99.99,,,0.00,Acu-Link.com,2013-02-20 13:04:00,
2013-02-20 08:19:00,25.7,18.9,29.52,SE,135,0.0,-999.0,75,-99.99,,,0.00,Acu-Link.com,2013-02-20 13:19:00,
2013-02-20 08:34:00,25.9,18.8,29.52,SE,135,1.7,-999.0,74,-99.99,,,0.00,Acu-Link.com,2013-02-20 13:34:00,
2013-02-20 08:49:00,27.0,19.8,29.53,SE,135,1.7,-999.0,74,-99.99,,,0.00,Acu-Link.com,2013-02-20 13:49:00,
2013-02-20 09:04:00,27.0,19.8,29.53,SE,135,2.7,-999.0,74,-99.99,,,0.00,Acu-Link.com,2013-02-20 14:04:00,
2013-02-20 09:19:00,27.3,20.4,29.53,SSW,202,1.7,-999.0,75,-99.99,,,0.00,Acu-Link.com,2013-02-20 14:19:00,
2013-02-20 09:35:00,28.0,19.8,29.53,SSW,202,1.1,-999.0,71,-99.99,,,0.00,Acu-Link.com,2013-02-20 14:35:00,
2013-02-20 09:50:00,27.3,19.2,29.52,SSW,202,3.2,-999.0,71,-99.99,,,0.00,Acu-Link.com,2013-02-20 14:50:00,
2013-02-20 10:05:00,28.0,19.5,29.51,South,180,4.7,-999.0,70,-99.99,,,0.00,Acu-Link.com,2013-02-20 15:05:00,
2013-02-20 10:20:00,26.2,17.4,29.50,NNW,337,1.7,-999.0,69,-99.99,,,0.00,Acu-Link.com,2013-02-20 15:20:00,
2013-02-20 10:35:00,25.9,16.8,29.51,SSW,202,5.3,-999.0,68,-99.99,,,0.00,Acu-Link.com,2013-02-20 15:35:00,
2013-02-20 10:50:00,27.7,18.9,29.51,SSW,202,2.7,-999.0,69,-99.99,,,0.00,Acu-Link.com,2013-02-20 15:50:00,
2013-02-20 11:05:00,28.2,18.3,29.52,NNW,337,3.7,-999.0,66,-99.99,,,0.00,Acu-Link.com,2013-02-20 16:05:00,
2013-02-20 11:21:00,27.7,18.2,29.53,SE,135,2.7,-999.0,67,-99.99,,,0.00,Acu-Link.com,2013-02-20 16:21:00,
2013-02-20 11:36:00,28.0,17.4,29.52,SSW,202,2.7,-999.0,64,-99.99,,,0.00,Acu-Link.com,2013-02-20 16:36:00,
2013-02-20 11:51:00,27.9,17.3,29.52,SSW,202,4.2,-999.0,64,-99.99,,,0.00,Acu-Link.com,2013-02-20 16:51:00,
2013-02-20 12:06:00,28.2,18.7,29.53,NNW,337,1.1,-999.0,67,-99.99,,,0.00,Acu-Link.com,2013-02-20 17:06:00,
2013-02-20 12:21:00,28.4,18.2,29.52,West,270,1.7,-999.0,65,-99.99,,,0.00,Acu-Link.com,2013-02-20 17:21:00,
2013-02-20 12:36:00,27.7,17.5,29.52,South,180,2.2,-999.0,65,-99.99,,,0.00,Acu-Link.com,2013-02-20 17:36:00,
2013-02-20 12:52:00,27.3,17.5,29.51,SW,225,2.2,-999.0,66,-99.99,,,0.00,Acu-Link.com,2013-02-20 17:52:00,
2013-02-20 13:07:00,27.3,16.8,29.51,ESE,112,5.3,-999.0,64,-99.99,,,0.00,Acu-Link.com,2013-02-20 18:07:00,
2013-02-20 13:22:00,27.9,16.6,29.51,South,180,4.2,-999.0,62,-99.99,,,0.00,Acu-Link.com,2013-02-20 18:22:00,
2013-02-20 13:37:00,28.8,17.1,29.51,SW,225,1.7,-999.0,61,-99.99,,,0.00,Acu-Link.com,2013-02-20 18:37:00,
2013-02-20 13:52:00,27.9,16.6,29.51,SSW,202,5.3,-999.0,62,-99.99,,,0.00,Acu-Link.com,2013-02-20 18:52:00,
2013-02-20 14:07:00,26.8,17.0,29.51,South,180,3.7,-999.0,66,-99.99,,,0.00,Acu-Link.com,2013-02-20 19:07:00,
2013-02-20 14:22:00,26.2,16.1,29.51,ESE,112,1.7,-999.0,65,-99.99,,,0.00,Acu-Link.com,2013-02-20 19:22:00,
2013-02-20 14:37:00,26.4,15.9,29.52,SW,225,1.1,-999.0,64,-99.99,,,0.00,Acu-Link.com,2013-02-20 19:37:00,
2013-02-20 14:52:00,26.8,17.0,29.53,SW,225,1.7,-999.0,66,-99.99,,,0.00,Acu-Link.com,2013-02-20 19:52:00,
2013-02-20 15:08:00,26.1,17.7,29.53,SSE,157,0.0,-999.0,70,-99.99,,,0.00,Acu-Link.com,2013-02-20 20:08:00,
2013-02-20 15:23:00,25.9,17.2,29.52,South,180,6.3,-999.0,69,-99.99,,,0.00,Acu-Link.com,2013-02-20 20:23:00,
2013-02-20 15:38:00,25.0,15.6,29.53,NE,45,1.7,-999.0,67,-99.99,,,0.00,Acu-Link.com,2013-02-20 20:38:00,
2013-02-20 15:53:00,25.0,16.0,29.54,East,90,2.2,-999.0,68,-99.99,,,0.00,Acu-Link.com,2013-02-20 20:53:00,
2013-02-20 16:08:00,25.2,16.1,29.55,SW,225,3.7,-999.0,68,-99.99,,,0.00,Acu-Link.com,2013-02-20 21:08:00,
2013-02-20 16:23:00,24.4,16.0,29.55,SSE,157,1.7,-999.0,70,-99.99,,,0.00,Acu-Link.com,2013-02-20 21:23:00,
2013-02-20 16:39:00,24.1,16.7,29.55,SSE,157,1.7,-999.0,73,-99.99,,,0.00,Acu-Link.com,2013-02-20 21:39:00,
2013-02-20 16:54:00,23.7,16.0,29.55,SE,135,1.7,-999.0,72,-99.99,,,0.00,Acu-Link.com,2013-02-20 21:54:00,
2013-02-20 17:09:00,23.5,15.8,29.54,SSE,157,2.7,-999.0,72,-99.99,,,0.00,Acu-Link.com,2013-02-20 22:09:00,
2013-02-20 17:24:00,23.2,15.5,29.55,NNW,337,3.7,-999.0,72,-99.99,,,0.00,Acu-Link.com,2013-02-20 22:24:00,
2013-02-20 17:39:00,22.8,15.2,29.55,South,180,1.1,-999.0,72,-99.99,,,0.00,Acu-Link.com,2013-02-20 22:39:00,
2013-02-20 17:54:00,22.6,14.6,29.56,SSW,202,3.2,-999.0,71,-99.99,,,0.00,Acu-Link.com,2013-02-20 22:54:00,
2013-02-20 18:09:00,22.5,15.2,29.57,ESE,112,3.7,-999.0,73,-99.99,,,0.00,Acu-Link.com,2013-02-20 23:09:00,
2013-02-20 18:24:00,22.1,14.8,29.57,SSW,202,4.2,-999.0,73,-99.99,,,0.00,Acu-Link.com,2013-02-20 23:24:00,
2013-02-20 18:39:00,21.9,14.6,29.58,NNW,337,3.7,-999.0,73,-99.99,,,0.00,Acu-Link.com,2013-02-20 23:39:00,
2013-02-20 18:54:00,21.7,14.4,29.58,SE,135,2.7,-999.0,73,-99.99,,,0.00,Acu-Link.com,2013-02-20 23:54:00,
2013-02-20 19:10:00,21.2,13.9,29.58,SE,135,4.2,-999.0,73,-99.99,,,0.00,Acu-Link.com,2013-02-21 00:10:00,
2013-02-20 19:25:00,21.2,13.6,29.58,SW,225,3.7,-999.0,72,-99.99,,,0.00,Acu-Link.com,2013-02-21 00:25:00,
2013-02-20 19:40:00,20.8,13.8,29.57,SE,135,2.7,-999.0,74,-99.99,,,0.00,Acu-Link.com,2013-02-21 00:40:00,
2013-02-20 19:55:00,20.7,14.4,29.58,North,0,1.1,-999.0,76,-99.99,,,0.00,Acu-Link.com,2013-02-21 00:55:00,
2013-02-20 20:10:00,20.5,15.0,29.58,SW,225,3.2,-999.0,79,-99.99,,,0.00,Acu-Link.com,2013-02-21 01:10:00,
2013-02-20 20:25:00,20.8,15.0,29.57,NE,45,2.2,-999.0,78,-99.99,,,0.00,Acu-Link.com,2013-02-21 01:25:00,
2013-02-20 20:40:00,21.0,14.6,29.60,SE,135,4.7,-999.0,76,-99.99,,,0.00,Acu-Link.com,2013-02-21 01:40:00,
2013-02-20 20:55:00,21.0,15.2,29.61,SSW,202,3.2,-999.0,78,-99.99,,,0.00,Acu-Link.com,2013-02-21 01:55:00,
2013-02-20 21:10:00,21.0,15.2,29.62,South,180,2.2,-999.0,78,-99.99,,,0.00,Acu-Link.com,2013-02-21 02:10:00,
2013-02-20 21:26:00,21.0,15.5,29.62,SSW,202,2.2,-999.0,79,-99.99,,,0.00,Acu-Link.com,2013-02-21 02:26:00,
2013-02-20 21:41:00,20.8,16.7,29.63,SSW,202,2.7,-999.0,84,-99.99,,,0.00,Acu-Link.com,2013-02-21 02:41:00,
2013-02-20 21:56:00,20.7,16.9,29.63,SE,135,0.0,-999.0,85,-99.99,,,0.00,Acu-Link.com,2013-02-21 02:56:00,
2013-02-20 22:11:00,20.5,16.4,29.62,SSW,202,2.2,-999.0,84,-99.99,,,0.00,Acu-Link.com,2013-02-21 03:11:00,
2013-02-20 22:26:00,21.0,15.2,29.62,SSW,202,1.1,-999.0,78,-99.99,,,0.00,Acu-Link.com,2013-02-21 03:26:00,
2013-02-20 22:41:00,21.4,14.4,29.62,SE,135,2.2,-999.0,74,-99.99,,,0.00,Acu-Link.com,2013-02-21 03:41:00,
2013-02-20 22:56:00,21.6,14.3,29.62,SSW,202,2.2,-999.0,73,-99.99,,,0.00,Acu-Link.com,2013-02-21 03:56:00,
2013-02-20 23:11:00,21.6,14.6,29.64,SSE,157,0.0,-999.0,74,-99.99,,,0.00,Acu-Link.com,2013-02-21 04:11:00,
2013-02-20 23:26:00,21.6,14.9,29.64,South,180,1.7,-999.0,75,-99.99,,,0.00,Acu-Link.com,2013-02-21 04:26:00,
2013-02-20 23:42:00,21.6,14.9,29.64,SSW,202,2.7,-999.0,75,-99.99,,,0.00,Acu-Link.com,2013-02-21 04:42:00,
2013-02-20 23:57:00,21.9,13.6,29.64,SSW,202,0.0,-999.0,70,-99.99,,,0.00,Acu-Link.com,2013-02-21 04:57:00,